sensor_id;sensor_type;location;lat;lon;timestamp;P1;durP1;ratioP1;P2;durP2;ratioP2
23260;SDS011;11799;47.740;-3.390;2023-10-09T00:00:23;4.65;;;2.72;;
23260;SDS011;11799;47.740;-3.390;2023-10-09T00:03:19;4.25;;;3.05;;
23260;SDS011;11799;47.740;-3.390;2023-10-09T00:05:49;3.92;;;3.10;;
23260;SDS011;11799;47.740;-3.390;2023-10-09T00:08:18;3.63;;;3.08;;
23260;SDS011;11799;47.740;-3.390;2023-10-09T00:10:47;4.53;;;2.80;;
23260;SDS011;11799;47.740;-3.390;2023-10-09T00:13:23;6.60;;;3.33;;
23260;SDS011;11799;47.740;-3.390;2023-10-09T00:15:58;3.90;;;2.90;;
23260;SDS011;11799;47.740;-3.390;2023-10-09T00:18:34;6.35;;;2.95;;
23260;SDS011;11799;47.740;-3.390;2023-10-09T00:21:00;5.00;;;3.13;;
23260;SDS011;11799;47.740;-3.390;2023-10-09T00:23:46;4.82;;;2.90;;
23260;SDS011;11799;47.740;-3.390;2023-10-09T00:26:21;4.72;;;2.67;;
23260;SDS011;11799;47.740;-3.390;2023-10-09T00:28:49;3.63;;;2.75;;
23260;SDS011;11799;47.740;-3.390;2023-10-09T00:31:19;4.78;;;2.83;;
23260;SDS011;11799;47.740;-3.390;2023-10-09T00:34:01;4.05;;;3.15;;
23260;SDS011;11799;47.740;-3.390;2023-10-09T00:36:44;3.25;;;2.63;;
23260;SDS011;11799;47.740;-3.390;2023-10-09T00:39:15;3.88;;;2.90;;
23260;SDS011;11799;47.740;-3.390;2023-10-09T00:41:48;3.95;;;2.70;;
23260;SDS011;11799;47.740;-3.390;2023-10-09T00:44:13;4.70;;;2.92;;
23260;SDS011;11799;47.740;-3.390;2023-10-09T00:46:39;4.22;;;3.00;;
23260;SDS011;11799;47.740;-3.390;2023-10-09T00:49:08;5.38;;;2.63;;
23260;SDS011;11799;47.740;-3.390;2023-10-09T00:51:36;4.07;;;2.67;;
23260;SDS011;11799;47.740;-3.390;2023-10-09T00:54:07;7.72;;;3.05;;
23260;SDS011;11799;47.740;-3.390;2023-10-09T00:56:39;5.05;;;3.33;;
23260;SDS011;11799;47.740;-3.390;2023-10-09T00:59:10;3.90;;;2.92;;
23260;SDS011;11799;47.740;-3.390;2023-10-09T01:01:41;4.70;;;3.15;;
23260;SDS011;11799;47.740;-3.390;2023-10-09T01:04:21;4.57;;;2.70;;
23260;SDS011;11799;47.740;-3.390;2023-10-09T01:06:47;4.97;;;3.10;;
23260;SDS011;11799;47.740;-3.390;2023-10-09T01:09:29;3.60;;;2.63;;
23260;SDS011;11799;47.740;-3.390;2023-10-09T01:11:54;3.80;;;2.70;;
23260;SDS011;11799;47.740;-3.390;2023-10-09T01:14:25;7.38;;;2.70;;
23260;SDS011;11799;47.740;-3.390;2023-10-09T01:16:51;3.42;;;2.72;;
23260;SDS011;11799;47.740;-3.390;2023-10-09T01:19:19;4.40;;;3.00;;
23260;SDS011;11799;47.740;-3.390;2023-10-09T01:21:49;4.03;;;2.70;;
23260;SDS011;11799;47.740;-3.390;2023-10-09T01:24:18;5.17;;;2.97;;
23260;SDS011;11799;47.740;-3.390;2023-10-09T01:26:48;3.83;;;2.70;;
23260;SDS011;11799;47.740;-3.390;2023-10-09T01:29:22;5.35;;;3.00;;
23260;SDS011;11799;47.740;-3.390;2023-10-09T01:31:53;3.60;;;2.47;;
23260;SDS011;11799;47.740;-3.390;2023-10-09T01:34:27;3.83;;;2.80;;
23260;SDS011;11799;47.740;-3.390;2023-10-09T01:37:11;4.03;;;2.65;;
23260;SDS011;11799;47.740;-3.390;2023-10-09T01:39:47;4.97;;;3.08;;
23260;SDS011;11799;47.740;-3.390;2023-10-09T01:42:20;3.40;;;2.65;;
23260;SDS011;11799;47.740;-3.390;2023-10-09T01:45:10;4.22;;;2.83;;
23260;SDS011;11799;47.740;-3.390;2023-10-09T01:47:37;6.32;;;2.80;;
23260;SDS011;11799;47.740;-3.390;2023-10-09T01:50:06;4.35;;;2.70;;
23260;SDS011;11799;47.740;-3.390;2023-10-09T01:52:53;6.25;;;3.35;;
23260;SDS011;11799;47.740;-3.390;2023-10-09T01:55:18;4.10;;;2.80;;
23260;SDS011;11799;47.740;-3.390;2023-10-09T01:57:55;4.10;;;2.67;;
23260;SDS011;11799;47.740;-3.390;2023-10-09T02:00:27;4.70;;;2.70;;
23260;SDS011;11799;47.740;-3.390;2023-10-09T02:02:55;5.13;;;2.95;;
23260;SDS011;11799;47.740;-3.390;2023-10-09T02:05:21;4.20;;;3.05;;
23260;SDS011;11799;47.740;-3.390;2023-10-09T02:07:46;4.18;;;2.80;;
23260;SDS011;11799;47.740;-3.390;2023-10-09T02:10:19;4.13;;;2.80;;
23260;SDS011;11799;47.740;-3.390;2023-10-09T02:13:02;5.35;;;3.05;;
23260;SDS011;11799;47.740;-3.390;2023-10-09T02:15:32;3.60;;;2.95;;
23260;SDS011;11799;47.740;-3.390;2023-10-09T02:18:09;6.15;;;2.78;;
23260;SDS011;11799;47.740;-3.390;2023-10-09T02:23:27;5.05;;;3.05;;
23260;SDS011;11799;47.740;-3.390;2023-10-09T02:26:05;4.22;;;2.95;;
23260;SDS011;11799;47.740;-3.390;2023-10-09T02:28:57;4.80;;;2.88;;
23260;SDS011;11799;47.740;-3.390;2023-10-09T02:31:29;7.90;;;3.25;;
23260;SDS011;11799;47.740;-3.390;2023-10-09T02:34:05;4.43;;;2.90;;
23260;SDS011;11799;47.740;-3.390;2023-10-09T02:36:33;4.70;;;2.55;;
23260;SDS011;11799;47.740;-3.390;2023-10-09T02:39:13;3.67;;;2.70;;
23260;SDS011;11799;47.740;-3.390;2023-10-09T02:41:57;3.90;;;2.75;;
23260;SDS011;11799;47.740;-3.390;2023-10-09T02:44:46;6.63;;;2.90;;
23260;SDS011;11799;47.740;-3.390;2023-10-09T02:47:11;5.35;;;3.13;;
23260;SDS011;11799;47.740;-3.390;2023-10-09T02:49:45;4.40;;;3.25;;
23260;SDS011;11799;47.740;-3.390;2023-10-09T02:52:13;4.00;;;3.10;;
23260;SDS011;11799;47.740;-3.390;2023-10-09T02:54:43;5.18;;;3.38;;
23260;SDS011;11799;47.740;-3.390;2023-10-09T02:57:12;4.95;;;3.05;;
23260;SDS011;11799;47.740;-3.390;2023-10-09T02:59:48;4.32;;;3.15;;
23260;SDS011;11799;47.740;-3.390;2023-10-09T03:02:17;4.80;;;2.75;;
23260;SDS011;11799;47.740;-3.390;2023-10-09T03:04:43;4.43;;;3.15;;
23260;SDS011;11799;47.740;-3.390;2023-10-09T03:07:12;5.20;;;3.03;;
23260;SDS011;11799;47.740;-3.390;2023-10-09T03:09:40;3.85;;;2.67;;
23260;SDS011;11799;47.740;-3.390;2023-10-09T03:12:06;4.30;;;3.05;;
23260;SDS011;11799;47.740;-3.390;2023-10-09T03:14:38;3.83;;;2.75;;
23260;SDS011;11799;47.740;-3.390;2023-10-09T03:17:04;3.67;;;2.92;;
23260;SDS011;11799;47.740;-3.390;2023-10-09T03:19:32;4.22;;;2.97;;
23260;SDS011;11799;47.740;-3.390;2023-10-09T03:24:37;4.43;;;2.92;;
23260;SDS011;11799;47.740;-3.390;2023-10-09T03:27:03;4.80;;;3.25;;
23260;SDS011;11799;47.740;-3.390;2023-10-09T03:29:29;4.82;;;2.75;;
23260;SDS011;11799;47.740;-3.390;2023-10-09T03:31:55;6.70;;;3.45;;
23260;SDS011;11799;47.740;-3.390;2023-10-09T03:34:22;4.50;;;2.90;;
23260;SDS011;11799;47.740;-3.390;2023-10-09T03:36:49;4.88;;;3.22;;
23260;SDS011;11799;47.740;-3.390;2023-10-09T03:39:25;5.05;;;3.17;;
23260;SDS011;11799;47.740;-3.390;2023-10-09T03:42:06;6.05;;;3.20;;
23260;SDS011;11799;47.740;-3.390;2023-10-09T03:44:37;5.70;;;3.13;;
23260;SDS011;11799;47.740;-3.390;2023-10-09T03:47:09;3.47;;;3.03;;
23260;SDS011;11799;47.740;-3.390;2023-10-09T03:49:36;7.25;;;2.95;;
23260;SDS011;11799;47.740;-3.390;2023-10-09T03:52:04;6.00;;;2.60;;
23260;SDS011;11799;47.740;-3.390;2023-10-09T03:54:32;3.85;;;3.13;;
23260;SDS011;11799;47.740;-3.390;2023-10-09T03:57:00;5.25;;;3.00;;
23260;SDS011;11799;47.740;-3.390;2023-10-09T03:59:26;3.65;;;2.80;;
23260;SDS011;11799;47.740;-3.390;2023-10-09T04:01:57;4.75;;;2.97;;
23260;SDS011;11799;47.740;-3.390;2023-10-09T04:04:23;5.43;;;2.92;;
23260;SDS011;11799;47.740;-3.390;2023-10-09T04:06:49;4.80;;;3.00;;
23260;SDS011;11799;47.740;-3.390;2023-10-09T04:09:16;5.25;;;2.90;;
23260;SDS011;11799;47.740;-3.390;2023-10-09T04:11:45;4.43;;;3.20;;
23260;SDS011;11799;47.740;-3.390;2023-10-09T04:14:22;4.72;;;2.92;;
23260;SDS011;11799;47.740;-3.390;2023-10-09T04:16:58;3.30;;;2.60;;
23260;SDS011;11799;47.740;-3.390;2023-10-09T04:19:43;3.40;;;2.72;;
23260;SDS011;11799;47.740;-3.390;2023-10-09T04:22:35;3.85;;;2.97;;
23260;SDS011;11799;47.740;-3.390;2023-10-09T04:25:08;5.65;;;3.38;;
23260;SDS011;11799;47.740;-3.390;2023-10-09T04:27:43;5.55;;;2.97;;
23260;SDS011;11799;47.740;-3.390;2023-10-09T04:30:10;5.38;;;2.65;;
23260;SDS011;11799;47.740;-3.390;2023-10-09T04:32:41;4.55;;;3.17;;
23260;SDS011;11799;47.740;-3.390;2023-10-09T04:35:10;6.80;;;3.22;;
23260;SDS011;11799;47.740;-3.390;2023-10-09T04:37:54;5.35;;;3.10;;
23260;SDS011;11799;47.740;-3.390;2023-10-09T04:40:29;4.40;;;3.35;;
23260;SDS011;11799;47.740;-3.390;2023-10-09T04:43:16;5.53;;;3.50;;
23260;SDS011;11799;47.740;-3.390;2023-10-09T04:45:47;5.05;;;3.58;;
23260;SDS011;11799;47.740;-3.390;2023-10-09T04:48:33;4.32;;;3.10;;
23260;SDS011;11799;47.740;-3.390;2023-10-09T04:50:59;6.28;;;3.40;;
23260;SDS011;11799;47.740;-3.390;2023-10-09T04:53:43;4.88;;;3.17;;
23260;SDS011;11799;47.740;-3.390;2023-10-09T04:56:15;5.38;;;3.30;;
23260;SDS011;11799;47.740;-3.390;2023-10-09T04:58:41;4.75;;;3.33;;
23260;SDS011;11799;47.740;-3.390;2023-10-09T05:01:08;4.95;;;3.40;;
23260;SDS011;11799;47.740;-3.390;2023-10-09T05:03:47;4.10;;;2.70;;
23260;SDS011;11799;47.740;-3.390;2023-10-09T05:06:21;6.68;;;3.28;;
23260;SDS011;11799;47.740;-3.390;2023-10-09T05:09:07;4.20;;;3.08;;
23260;SDS011;11799;47.740;-3.390;2023-10-09T05:11:34;4.43;;;2.92;;
23260;SDS011;11799;47.740;-3.390;2023-10-09T05:14:18;6.10;;;3.30;;
23260;SDS011;11799;47.740;-3.390;2023-10-09T05:16:52;5.00;;;3.38;;
23260;SDS011;11799;47.740;-3.390;2023-10-09T05:19:26;5.82;;;3.20;;
23260;SDS011;11799;47.740;-3.390;2023-10-09T05:22:10;4.05;;;2.92;;
23260;SDS011;11799;47.740;-3.390;2023-10-09T05:24:58;4.80;;;3.40;;
23260;SDS011;11799;47.740;-3.390;2023-10-09T05:27:24;4.85;;;3.42;;
23260;SDS011;11799;47.740;-3.390;2023-10-09T05:30:09;4.57;;;3.45;;
23260;SDS011;11799;47.740;-3.390;2023-10-09T05:35:24;5.80;;;3.28;;
23260;SDS011;11799;47.740;-3.390;2023-10-09T05:38:06;5.50;;;3.83;;
23260;SDS011;11799;47.740;-3.390;2023-10-09T05:40:41;4.80;;;3.08;;
23260;SDS011;11799;47.740;-3.390;2023-10-09T05:43:09;10.52;;;3.60;;
23260;SDS011;11799;47.740;-3.390;2023-10-09T05:45:55;4.60;;;3.08;;
23260;SDS011;11799;47.740;-3.390;2023-10-09T05:48:46;4.82;;;3.28;;
23260;SDS011;11799;47.740;-3.390;2023-10-09T05:51:19;7.10;;;3.28;;
23260;SDS011;11799;47.740;-3.390;2023-10-09T05:54:05;7.05;;;3.58;;
23260;SDS011;11799;47.740;-3.390;2023-10-09T05:57:08;6.07;;;3.67;;
23260;SDS011;11799;47.740;-3.390;2023-10-09T06:00:00;5.30;;;3.60;;
23260;SDS011;11799;47.740;-3.390;2023-10-09T06:02:44;6.15;;;3.97;;
23260;SDS011;11799;47.740;-3.390;2023-10-09T06:05:28;5.45;;;3.55;;
23260;SDS011;11799;47.740;-3.390;2023-10-09T06:08:06;8.07;;;3.63;;
23260;SDS011;11799;47.740;-3.390;2023-10-09T06:10:32;6.70;;;3.90;;
23260;SDS011;11799;47.740;-3.390;2023-10-09T06:13:05;12.90;;;4.00;;
23260;SDS011;11799;47.740;-3.390;2023-10-09T06:15:37;4.88;;;3.80;;
23260;SDS011;11799;47.740;-3.390;2023-10-09T06:18:15;5.85;;;3.90;;
23260;SDS011;11799;47.740;-3.390;2023-10-09T06:20:59;6.63;;;3.60;;
23260;SDS011;11799;47.740;-3.390;2023-10-09T06:23:55;5.28;;;3.53;;
23260;SDS011;11799;47.740;-3.390;2023-10-09T06:26:39;6.28;;;3.60;;
23260;SDS011;11799;47.740;-3.390;2023-10-09T06:29:19;7.45;;;3.97;;
23260;SDS011;11799;47.740;-3.390;2023-10-09T06:34:45;16.38;;;3.50;;
23260;SDS011;11799;47.740;-3.390;2023-10-09T06:37:14;7.97;;;3.97;;
23260;SDS011;11799;47.740;-3.390;2023-10-09T06:39:59;5.47;;;3.22;;
23260;SDS011;11799;47.740;-3.390;2023-10-09T06:42:26;8.07;;;3.60;;
23260;SDS011;11799;47.740;-3.390;2023-10-09T06:45:08;5.03;;;3.85;;
23260;SDS011;11799;47.740;-3.390;2023-10-09T06:47:43;7.30;;;3.83;;
23260;SDS011;11799;47.740;-3.390;2023-10-09T06:50:21;10.00;;;4.38;;
23260;SDS011;11799;47.740;-3.390;2023-10-09T06:52:51;8.63;;;3.55;;
23260;SDS011;11799;47.740;-3.390;2023-10-09T06:55:44;4.10;;;3.33;;
23260;SDS011;11799;47.740;-3.390;2023-10-09T07:00:52;6.13;;;3.83;;
23260;SDS011;11799;47.740;-3.390;2023-10-09T07:03:27;5.80;;;3.65;;
23260;SDS011;11799;47.740;-3.390;2023-10-09T07:08:55;12.45;;;4.78;;
23260;SDS011;11799;47.740;-3.390;2023-10-09T07:14:13;15.23;;;5.00;;
23260;SDS011;11799;47.740;-3.390;2023-10-09T07:17:13;13.35;;;5.07;;
23260;SDS011;11799;47.740;-3.390;2023-10-09T07:19:47;13.90;;;4.88;;
23260;SDS011;11799;47.740;-3.390;2023-10-09T07:22:14;13.05;;;4.63;;
23260;SDS011;11799;47.740;-3.390;2023-10-09T07:24:49;8.25;;;4.55;;
23260;SDS011;11799;47.740;-3.390;2023-10-09T07:27:25;8.65;;;4.50;;
23260;SDS011;11799;47.740;-3.390;2023-10-09T07:30:12;8.82;;;4.30;;
23260;SDS011;11799;47.740;-3.390;2023-10-09T07:32:58;8.82;;;3.90;;
23260;SDS011;11799;47.740;-3.390;2023-10-09T07:35:43;8.20;;;4.55;;
23260;SDS011;11799;47.740;-3.390;2023-10-09T07:38:19;10.98;;;4.50;;
23260;SDS011;11799;47.740;-3.390;2023-10-09T07:40:47;17.60;;;5.20;;
23260;SDS011;11799;47.740;-3.390;2023-10-09T07:43:29;11.48;;;4.50;;
23260;SDS011;11799;47.740;-3.390;2023-10-09T07:46:19;17.80;;;4.82;;
23260;SDS011;11799;47.740;-3.390;2023-10-09T07:49:17;13.32;;;5.00;;
23260;SDS011;11799;47.740;-3.390;2023-10-09T07:51:49;10.98;;;5.03;;
23260;SDS011;11799;47.740;-3.390;2023-10-09T07:54:20;11.23;;;4.55;;
23260;SDS011;11799;47.740;-3.390;2023-10-09T07:56:58;12.15;;;4.38;;
23260;SDS011;11799;47.740;-3.390;2023-10-09T07:59:41;6.75;;;3.90;;
23260;SDS011;11799;47.740;-3.390;2023-10-09T08:02:23;6.15;;;3.97;;
23260;SDS011;11799;47.740;-3.390;2023-10-09T08:04:58;5.30;;;3.40;;
23260;SDS011;11799;47.740;-3.390;2023-10-09T08:07:54;6.00;;;3.72;;
23260;SDS011;11799;47.740;-3.390;2023-10-09T08:10:22;6.60;;;3.17;;
23260;SDS011;11799;47.740;-3.390;2023-10-09T08:12:47;4.78;;;3.38;;
23260;SDS011;11799;47.740;-3.390;2023-10-09T08:15:16;6.05;;;3.40;;
23260;SDS011;11799;47.740;-3.390;2023-10-09T08:20:38;7.82;;;3.30;;
23260;SDS011;11799;47.740;-3.390;2023-10-09T08:23:37;6.53;;;3.75;;
23260;SDS011;11799;47.740;-3.390;2023-10-09T08:26:14;7.05;;;3.42;;
23260;SDS011;11799;47.740;-3.390;2023-10-09T08:28:53;4.95;;;3.05;;
23260;SDS011;11799;47.740;-3.390;2023-10-09T08:31:20;5.55;;;3.03;;
23260;SDS011;11799;47.740;-3.390;2023-10-09T08:36:48;4.68;;;3.42;;
23260;SDS011;11799;47.740;-3.390;2023-10-09T08:39:20;6.07;;;3.30;;
23260;SDS011;11799;47.740;-3.390;2023-10-09T08:41:55;5.10;;;3.05;;
23260;SDS011;11799;47.740;-3.390;2023-10-09T08:44:24;5.93;;;3.55;;
23260;SDS011;11799;47.740;-3.390;2023-10-09T08:46:53;7.03;;;3.35;;
23260;SDS011;11799;47.740;-3.390;2023-10-09T08:49:19;7.82;;;3.35;;
23260;SDS011;11799;47.740;-3.390;2023-10-09T08:51:46;7.72;;;3.00;;
23260;SDS011;11799;47.740;-3.390;2023-10-09T08:54:13;4.25;;;3.10;;
23260;SDS011;11799;47.740;-3.390;2023-10-09T08:56:40;5.93;;;3.05;;
23260;SDS011;11799;47.740;-3.390;2023-10-09T08:59:16;10.05;;;3.30;;
23260;SDS011;11799;47.740;-3.390;2023-10-09T09:01:48;13.68;;;4.15;;
23260;SDS011;11799;47.740;-3.390;2023-10-09T09:07:01;6.93;;;3.10;;
23260;SDS011;11799;47.740;-3.390;2023-10-09T09:09:27;9.77;;;3.63;;
23260;SDS011;11799;47.740;-3.390;2023-10-09T09:11:55;7.80;;;3.45;;
23260;SDS011;11799;47.740;-3.390;2023-10-09T09:14:21;9.43;;;3.53;;
23260;SDS011;11799;47.740;-3.390;2023-10-09T09:17:02;10.82;;;3.35;;
23260;SDS011;11799;47.740;-3.390;2023-10-09T09:19:33;5.85;;;3.75;;
23260;SDS011;11799;47.740;-3.390;2023-10-09T09:22:03;5.85;;;3.25;;
23260;SDS011;11799;47.740;-3.390;2023-10-09T09:24:39;8.77;;;3.50;;
23260;SDS011;11799;47.740;-3.390;2023-10-09T09:27:14;7.40;;;3.17;;
23260;SDS011;11799;47.740;-3.390;2023-10-09T09:29:46;6.68;;;2.90;;
23260;SDS011;11799;47.740;-3.390;2023-10-09T09:32:26;10.82;;;3.45;;
23260;SDS011;11799;47.740;-3.390;2023-10-09T09:35:01;8.00;;;3.00;;
23260;SDS011;11799;47.740;-3.390;2023-10-09T09:37:31;4.68;;;3.40;;
23260;SDS011;11799;47.740;-3.390;2023-10-09T09:40:15;5.70;;;3.22;;
23260;SDS011;11799;47.740;-3.390;2023-10-09T09:42:58;4.80;;;3.50;;
23260;SDS011;11799;47.740;-3.390;2023-10-09T09:45:36;8.70;;;4.03;;
23260;SDS011;11799;47.740;-3.390;2023-10-09T09:48:03;6.80;;;3.05;;
23260;SDS011;11799;47.740;-3.390;2023-10-09T09:50:40;7.93;;;3.53;;
23260;SDS011;11799;47.740;-3.390;2023-10-09T09:53:14;5.75;;;3.33;;
23260;SDS011;11799;47.740;-3.390;2023-10-09T09:55:52;9.38;;;3.38;;
23260;SDS011;11799;47.740;-3.390;2023-10-09T09:58:23;7.60;;;2.92;;
23260;SDS011;11799;47.740;-3.390;2023-10-09T10:00:52;6.03;;;2.72;;
23260;SDS011;11799;47.740;-3.390;2023-10-09T10:05:59;7.90;;;3.30;;
23260;SDS011;11799;47.740;-3.390;2023-10-09T10:08:30;3.90;;;3.03;;
23260;SDS011;11799;47.740;-3.390;2023-10-09T10:10:58;6.70;;;3.20;;
23260;SDS011;11799;47.740;-3.390;2023-10-09T10:16:11;6.10;;;3.05;;
23260;SDS011;11799;47.740;-3.390;2023-10-09T10:18:59;6.20;;;3.22;;
23260;SDS011;11799;47.740;-3.390;2023-10-09T10:21:43;6.18;;;3.42;;
23260;SDS011;11799;47.740;-3.390;2023-10-09T10:29:43;6.07;;;3.30;;
23260;SDS011;11799;47.740;-3.390;2023-10-09T10:32:11;4.50;;;2.75;;
23260;SDS011;11799;47.740;-3.390;2023-10-09T10:34:55;5.43;;;3.28;;
23260;SDS011;11799;47.740;-3.390;2023-10-09T10:37:36;6.88;;;3.40;;
23260;SDS011;11799;47.740;-3.390;2023-10-09T10:40:04;9.27;;;3.17;;
23260;SDS011;11799;47.740;-3.390;2023-10-09T10:42:47;8.77;;;3.00;;
23260;SDS011;11799;47.740;-3.390;2023-10-09T10:45:32;5.30;;;2.88;;
23260;SDS011;11799;47.740;-3.390;2023-10-09T10:48:01;3.53;;;2.67;;
23260;SDS011;11799;47.740;-3.390;2023-10-09T10:50:32;5.70;;;3.00;;
23260;SDS011;11799;47.740;-3.390;2023-10-09T10:53:13;6.72;;;2.70;;
23260;SDS011;11799;47.740;-3.390;2023-10-09T10:55:54;7.88;;;3.00;;
23260;SDS011;11799;47.740;-3.390;2023-10-09T10:58:23;12.80;;;2.90;;
23260;SDS011;11799;47.740;-3.390;2023-10-09T11:00:53;7.43;;;3.17;;
23260;SDS011;11799;47.740;-3.390;2023-10-09T11:03:22;5.13;;;2.92;;
23260;SDS011;11799;47.740;-3.390;2023-10-09T11:05:55;5.55;;;2.83;;
23260;SDS011;11799;47.740;-3.390;2023-10-09T11:08:24;8.15;;;3.05;;
23260;SDS011;11799;47.740;-3.390;2023-10-09T11:11:17;6.90;;;2.80;;
23260;SDS011;11799;47.740;-3.390;2023-10-09T11:13:44;6.22;;;3.03;;
23260;SDS011;11799;47.740;-3.390;2023-10-09T11:16:19;9.50;;;2.85;;
23260;SDS011;11799;47.740;-3.390;2023-10-09T11:19:00;6.90;;;2.60;;
23260;SDS011;11799;47.740;-3.390;2023-10-09T11:21:37;6.72;;;2.42;;
23260;SDS011;11799;47.740;-3.390;2023-10-09T11:24:08;4.90;;;2.80;;
23260;SDS011;11799;47.740;-3.390;2023-10-09T11:26:49;5.30;;;2.72;;
23260;SDS011;11799;47.740;-3.390;2023-10-09T11:29:21;5.95;;;2.70;;
23260;SDS011;11799;47.740;-3.390;2023-10-09T11:32:06;4.93;;;2.38;;
23260;SDS011;11799;47.740;-3.390;2023-10-09T11:34:43;8.32;;;2.72;;
23260;SDS011;11799;47.740;-3.390;2023-10-09T11:37:22;5.63;;;2.78;;
23260;SDS011;11799;47.740;-3.390;2023-10-09T11:39:55;4.28;;;2.60;;
23260;SDS011;11799;47.740;-3.390;2023-10-09T11:42:21;4.90;;;3.25;;
23260;SDS011;11799;47.740;-3.390;2023-10-09T11:45:05;4.10;;;3.05;;
23260;SDS011;11799;47.740;-3.390;2023-10-09T11:47:54;5.13;;;2.95;;
23260;SDS011;11799;47.740;-3.390;2023-10-09T11:50:39;5.15;;;3.10;;
23260;SDS011;11799;47.740;-3.390;2023-10-09T11:53:16;4.85;;;2.70;;
23260;SDS011;11799;47.740;-3.390;2023-10-09T11:56:01;7.72;;;2.88;;
23260;SDS011;11799;47.740;-3.390;2023-10-09T11:58:27;5.40;;;2.70;;
23260;SDS011;11799;47.740;-3.390;2023-10-09T12:00:53;5.38;;;2.60;;
23260;SDS011;11799;47.740;-3.390;2023-10-09T12:03:26;4.22;;;2.70;;
23260;SDS011;11799;47.740;-3.390;2023-10-09T12:06:02;4.05;;;2.80;;
23260;SDS011;11799;47.740;-3.390;2023-10-09T12:08:37;5.95;;;2.63;;
23260;SDS011;11799;47.740;-3.390;2023-10-09T12:11:05;3.75;;;2.60;;
23260;SDS011;11799;47.740;-3.390;2023-10-09T12:13:36;4.47;;;2.80;;
23260;SDS011;11799;47.740;-3.390;2023-10-09T12:16:07;6.45;;;3.03;;
23260;SDS011;11799;47.740;-3.390;2023-10-09T12:18:34;5.50;;;2.50;;
23260;SDS011;11799;47.740;-3.390;2023-10-09T12:21:01;5.03;;;2.28;;
23260;SDS011;11799;47.740;-3.390;2023-10-09T12:23:30;7.30;;;2.50;;
23260;SDS011;11799;47.740;-3.390;2023-10-09T12:26:01;4.38;;;2.65;;
23260;SDS011;11799;47.740;-3.390;2023-10-09T12:28:27;4.60;;;2.90;;
23260;SDS011;11799;47.740;-3.390;2023-10-09T12:30:53;4.15;;;2.72;;
23260;SDS011;11799;47.740;-3.390;2023-10-09T12:33:19;5.38;;;2.70;;
23260;SDS011;11799;47.740;-3.390;2023-10-09T12:35:52;3.90;;;2.30;;
23260;SDS011;11799;47.740;-3.390;2023-10-09T12:38:18;4.15;;;2.75;;
23260;SDS011;11799;47.740;-3.390;2023-10-09T12:40:47;3.70;;;2.45;;
23260;SDS011;11799;47.740;-3.390;2023-10-09T12:43:18;4.15;;;2.58;;
23260;SDS011;11799;47.740;-3.390;2023-10-09T12:45:47;3.17;;;2.60;;
23260;SDS011;11799;47.740;-3.390;2023-10-09T12:48:13;4.90;;;2.75;;
23260;SDS011;11799;47.740;-3.390;2023-10-09T12:50:39;4.68;;;2.47;;
23260;SDS011;11799;47.740;-3.390;2023-10-09T12:53:09;6.35;;;2.60;;
23260;SDS011;11799;47.740;-3.390;2023-10-09T12:55:39;4.38;;;2.72;;
23260;SDS011;11799;47.740;-3.390;2023-10-09T12:58:09;6.28;;;2.85;;
23260;SDS011;11799;47.740;-3.390;2023-10-09T13:00:40;3.80;;;2.42;;
23260;SDS011;11799;47.740;-3.390;2023-10-09T13:03:10;5.57;;;2.50;;
23260;SDS011;11799;47.740;-3.390;2023-10-09T13:05:46;6.30;;;2.80;;
23260;SDS011;11799;47.740;-3.390;2023-10-09T13:08:24;4.28;;;2.90;;
23260;SDS011;11799;47.740;-3.390;2023-10-09T13:10:57;5.45;;;2.72;;
23260;SDS011;11799;47.740;-3.390;2023-10-09T13:13:36;5.32;;;2.72;;
23260;SDS011;11799;47.740;-3.390;2023-10-09T13:18:50;5.10;;;2.50;;
23260;SDS011;11799;47.740;-3.390;2023-10-09T13:21:23;4.85;;;3.00;;
23260;SDS011;11799;47.740;-3.390;2023-10-09T13:23:51;3.70;;;2.38;;
23260;SDS011;11799;47.740;-3.390;2023-10-09T13:26:20;4.68;;;2.63;;
23260;SDS011;11799;47.740;-3.390;2023-10-09T13:28:51;3.72;;;2.50;;
23260;SDS011;11799;47.740;-3.390;2023-10-09T13:31:18;5.43;;;2.40;;
23260;SDS011;11799;47.740;-3.390;2023-10-09T13:33:46;6.57;;;2.90;;
23260;SDS011;11799;47.740;-3.390;2023-10-09T13:36:12;4.43;;;2.85;;
23260;SDS011;11799;47.740;-3.390;2023-10-09T13:38:44;4.00;;;2.63;;
23260;SDS011;11799;47.740;-3.390;2023-10-09T13:41:13;6.30;;;3.28;;
23260;SDS011;11799;47.740;-3.390;2023-10-09T13:43:40;5.30;;;2.83;;
23260;SDS011;11799;47.740;-3.390;2023-10-09T13:46:12;4.70;;;2.33;;
23260;SDS011;11799;47.740;-3.390;2023-10-09T13:48:41;3.42;;;2.47;;
23260;SDS011;11799;47.740;-3.390;2023-10-09T13:51:11;4.63;;;2.63;;
23260;SDS011;11799;47.740;-3.390;2023-10-09T13:53:44;4.93;;;2.80;;
23260;SDS011;11799;47.740;-3.390;2023-10-09T13:56:14;4.07;;;2.85;;
23260;SDS011;11799;47.740;-3.390;2023-10-09T13:58:47;5.55;;;2.63;;
23260;SDS011;11799;47.740;-3.390;2023-10-09T14:01:16;7.22;;;3.15;;
23260;SDS011;11799;47.740;-3.390;2023-10-09T14:03:58;5.50;;;2.95;;
23260;SDS011;11799;47.740;-3.390;2023-10-09T14:06:25;4.43;;;2.83;;
23260;SDS011;11799;47.740;-3.390;2023-10-09T14:11:25;4.85;;;3.03;;
23260;SDS011;11799;47.740;-3.390;2023-10-09T14:13:54;6.10;;;2.83;;
23260;SDS011;11799;47.740;-3.390;2023-10-09T14:16:20;5.82;;;2.83;;
23260;SDS011;11799;47.740;-3.390;2023-10-09T14:18:58;7.20;;;2.85;;
23260;SDS011;11799;47.740;-3.390;2023-10-09T14:21:28;4.63;;;2.92;;
23260;SDS011;11799;47.740;-3.390;2023-10-09T14:23:58;6.32;;;2.88;;
23260;SDS011;11799;47.740;-3.390;2023-10-09T14:26:24;7.30;;;2.95;;
23260;SDS011;11799;47.740;-3.390;2023-10-09T14:31:22;7.65;;;2.83;;
23260;SDS011;11799;47.740;-3.390;2023-10-09T14:33:53;4.47;;;3.05;;
23260;SDS011;11799;47.740;-3.390;2023-10-09T14:36:20;6.32;;;3.03;;
23260;SDS011;11799;47.740;-3.390;2023-10-09T14:38:48;6.32;;;2.80;;
23260;SDS011;11799;47.740;-3.390;2023-10-09T14:41:21;4.88;;;2.90;;
23260;SDS011;11799;47.740;-3.390;2023-10-09T14:43:51;4.22;;;2.83;;
23260;SDS011;11799;47.740;-3.390;2023-10-09T14:46:18;4.70;;;3.00;;
23260;SDS011;11799;47.740;-3.390;2023-10-09T14:48:54;4.32;;;2.67;;
23260;SDS011;11799;47.740;-3.390;2023-10-09T14:51:21;4.70;;;2.58;;
23260;SDS011;11799;47.740;-3.390;2023-10-09T14:53:55;7.93;;;2.85;;
23260;SDS011;11799;47.740;-3.390;2023-10-09T14:56:30;3.45;;;2.80;;
23260;SDS011;11799;47.740;-3.390;2023-10-09T14:58:58;5.97;;;3.10;;
23260;SDS011;11799;47.740;-3.390;2023-10-09T15:01:25;5.97;;;2.80;;
23260;SDS011;11799;47.740;-3.390;2023-10-09T15:03:54;5.20;;;3.38;;
23260;SDS011;11799;47.740;-3.390;2023-10-09T15:06:25;5.15;;;2.95;;
23260;SDS011;11799;47.740;-3.390;2023-10-09T15:08:59;8.43;;;3.10;;
23260;SDS011;11799;47.740;-3.390;2023-10-09T15:11:33;5.13;;;2.70;;
23260;SDS011;11799;47.740;-3.390;2023-10-09T15:13:59;5.85;;;2.95;;
23260;SDS011;11799;47.740;-3.390;2023-10-09T15:16:25;6.22;;;3.08;;
23260;SDS011;11799;47.740;-3.390;2023-10-09T15:18:52;7.95;;;3.00;;
23260;SDS011;11799;47.740;-3.390;2023-10-09T15:21:19;6.00;;;3.08;;
23260;SDS011;11799;47.740;-3.390;2023-10-09T15:23:48;4.47;;;2.75;;
23260;SDS011;11799;47.740;-3.390;2023-10-09T15:26:16;5.35;;;3.22;;
23260;SDS011;11799;47.740;-3.390;2023-10-09T15:28:42;5.40;;;3.10;;
23260;SDS011;11799;47.740;-3.390;2023-10-09T15:31:08;4.25;;;2.80;;
23260;SDS011;11799;47.740;-3.390;2023-10-09T15:33:37;5.22;;;3.10;;
23260;SDS011;11799;47.740;-3.390;2023-10-09T15:36:15;8.77;;;3.95;;
23260;SDS011;11799;47.740;-3.390;2023-10-09T15:38:46;3.92;;;2.88;;
23260;SDS011;11799;47.740;-3.390;2023-10-09T15:41:13;8.05;;;3.05;;
23260;SDS011;11799;47.740;-3.390;2023-10-09T15:43:41;7.38;;;3.15;;
23260;SDS011;11799;47.740;-3.390;2023-10-09T15:46:12;7.00;;;3.30;;
23260;SDS011;11799;47.740;-3.390;2023-10-09T15:48:42;6.47;;;3.10;;
23260;SDS011;11799;47.740;-3.390;2023-10-09T15:51:09;7.28;;;3.08;;
23260;SDS011;11799;47.740;-3.390;2023-10-09T15:53:37;6.18;;;3.33;;
23260;SDS011;11799;47.740;-3.390;2023-10-09T15:56:03;4.93;;;2.83;;